sensor_id;sensor_type;location;lat;lon;timestamp;pressure;altitude;pressure_sealevel;temperature;humidity
39455;BME280;25155;41.890;23.446;2024-02-21T00:00:33;92425.69;;;0.96;52.45
39455;BME280;25155;41.890;23.446;2024-02-21T00:03:00;92421.94;;;0.92;52.83
39455;BME280;25155;41.890;23.446;2024-02-21T00:05:30;92416.25;;;0.83;52.64
39455;BME280;25155;41.890;23.446;2024-02-21T00:07:59;92417.81;;;0.77;53.27
39455;BME280;25155;41.890;23.446;2024-02-21T00:10:27;92423.38;;;0.74;53.60
39455;BME280;25155;41.890;23.446;2024-02-21T00:12:55;92426.59;;;0.70;53.90
39455;BME280;25155;41.890;23.446;2024-02-21T00:15:23;92419.47;;;0.65;53.53
39455;BME280;25155;41.890;23.446;2024-02-21T00:17:51;92420.25;;;0.66;53.96
39455;BME280;25155;41.890;23.446;2024-02-21T00:20:18;92415.28;;;0.64;54.22
39455;BME280;25155;41.890;23.446;2024-02-21T00:22:46;92410.72;;;0.59;53.82
39455;BME280;25155;41.890;23.446;2024-02-21T00:25:13;92405.59;;;0.59;53.75
39455;BME280;25155;41.890;23.446;2024-02-21T00:27:40;92409.56;;;0.62;54.17
39455;BME280;25155;41.890;23.446;2024-02-21T00:30:08;92410.91;;;0.65;54.07
39455;BME280;25155;41.890;23.446;2024-02-21T00:32:37;92411.72;;;0.65;54.15
39455;BME280;25155;41.890;23.446;2024-02-21T00:35:05;92407.75;;;0.69;54.13
39455;BME280;25155;41.890;23.446;2024-02-21T00:37:32;92403.16;;;0.71;54.15
39455;BME280;25155;41.890;23.446;2024-02-21T00:39:59;92410.50;;;0.74;54.32
39455;BME280;25155;41.890;23.446;2024-02-21T00:42:27;92404.34;;;0.75;54.48
39455;BME280;25155;41.890;23.446;2024-02-21T00:44:54;92396.44;;;0.77;53.90
39455;BME280;25155;41.890;23.446;2024-02-21T00:47:21;92403.75;;;0.80;54.10
39455;BME280;25155;41.890;23.446;2024-02-21T00:49:50;92406.13;;;0.82;54.03
39455;BME280;25155;41.890;23.446;2024-02-21T00:52:17;92405.72;;;0.85;54.17
39455;BME280;25155;41.890;23.446;2024-02-21T00:54:45;92409.50;;;0.82;54.04
39455;BME280;25155;41.890;23.446;2024-02-21T00:57:12;92399.00;;;0.84;54.53
39455;BME280;25155;41.890;23.446;2024-02-21T00:59:39;92401.56;;;0.84;54.16
39455;BME280;25155;41.890;23.446;2024-02-21T01:02:07;92400.34;;;0.86;54.13
39455;BME280;25155;41.890;23.446;2024-02-21T01:04:34;92390.06;;;0.80;56.06
39455;BME280;25155;41.890;23.446;2024-02-21T01:07:04;92394.09;;;0.69;56.27
39455;BME280;25155;41.890;23.446;2024-02-21T01:09:32;92381.03;;;0.64;56.50
39455;BME280;25155;41.890;23.446;2024-02-21T01:11:59;92394.91;;;0.56;57.65
39455;BME280;25155;41.890;23.446;2024-02-21T01:14:26;92383.44;;;0.52;57.76
39455;BME280;25155;41.890;23.446;2024-02-21T01:16:53;92378.09;;;0.53;57.76
39455;BME280;25155;41.890;23.446;2024-02-21T01:19:21;92380.06;;;0.51;57.76
39455;BME280;25155;41.890;23.446;2024-02-21T01:21:48;92383.63;;;0.57;57.70
39455;BME280;25155;41.890;23.446;2024-02-21T01:24:16;92382.22;;;0.61;56.91
39455;BME280;25155;41.890;23.446;2024-02-21T01:26:44;92375.28;;;0.68;56.93
39455;BME280;25155;41.890;23.446;2024-02-21T01:29:12;92375.84;;;0.70;56.83
39455;BME280;25155;41.890;23.446;2024-02-21T01:31:39;92378.03;;;0.73;56.79
39455;BME280;25155;41.890;23.446;2024-02-21T01:34:07;92369.06;;;0.76;56.47
39455;BME280;25155;41.890;23.446;2024-02-21T01:36:34;92369.47;;;0.80;56.69
39455;BME280;25155;41.890;23.446;2024-02-21T01:39:02;92364.72;;;0.83;56.18
39455;BME280;25155;41.890;23.446;2024-02-21T01:41:31;92363.13;;;0.82;55.82
39455;BME280;25155;41.890;23.446;2024-02-21T01:43:58;92357.97;;;0.82;56.68
39455;BME280;25155;41.890;23.446;2024-02-21T01:46:25;92364.72;;;0.83;56.61
39455;BME280;25155;41.890;23.446;2024-02-21T01:48:56;92357.75;;;0.84;56.60
39455;BME280;25155;41.890;23.446;2024-02-21T01:51:24;92352.63;;;0.84;56.28
39455;BME280;25155;41.890;23.446;2024-02-21T01:53:53;92348.44;;;0.83;56.74
39455;BME280;25155;41.890;23.446;2024-02-21T01:56:22;92348.03;;;0.86;56.62
39455;BME280;25155;41.890;23.446;2024-02-21T01:58:51;92347.66;;;0.82;56.68
39455;BME280;25155;41.890;23.446;2024-02-21T02:01:19;92349.63;;;0.87;56.42
39455;BME280;25155;41.890;23.446;2024-02-21T02:03:47;92353.38;;;0.91;56.26
39455;BME280;25155;41.890;23.446;2024-02-21T02:06:14;92348.22;;;0.91;56.85
39455;BME280;25155;41.890;23.446;2024-02-21T02:08:42;92339.56;;;0.79;56.34
39455;BME280;25155;41.890;23.446;2024-02-21T02:11:09;92346.50;;;0.78;56.47
39455;BME280;25155;41.890;23.446;2024-02-21T02:13:37;92349.69;;;0.73;56.41
39455;BME280;25155;41.890;23.446;2024-02-21T02:16:06;92346.31;;;0.66;56.53
39455;BME280;25155;41.890;23.446;2024-02-21T02:18:33;92343.16;;;0.71;56.53
39455;BME280;25155;41.890;23.446;2024-02-21T02:21:00;92351.66;;;0.71;56.59
39455;BME280;25155;41.890;23.446;2024-02-21T02:23:29;92353.25;;;0.72;56.78
39455;BME280;25155;41.890;23.446;2024-02-21T02:25:58;92349.69;;;0.73;56.59
39455;BME280;25155;41.890;23.446;2024-02-21T02:28:27;92349.28;;;0.76;56.81
39455;BME280;25155;41.890;23.446;2024-02-21T02:30:54;92342.94;;;0.72;56.21
39455;BME280;25155;41.890;23.446;2024-02-21T02:33:21;92335.41;;;0.71;56.46
39455;BME280;25155;41.890;23.446;2024-02-21T02:35:48;92337.41;;;0.69;56.67
39455;BME280;25155;41.890;23.446;2024-02-21T02:38:16;92348.50;;;0.69;56.40
39455;BME280;25155;41.890;23.446;2024-02-21T02:40:45;92349.31;;;0.70;56.42
39455;BME280;25155;41.890;23.446;2024-02-21T02:43:12;92343.94;;;0.71;56.57
39455;BME280;25155;41.890;23.446;2024-02-21T02:45:39;92346.50;;;0.71;56.08
39455;BME280;25155;41.890;23.446;2024-02-21T02:48:07;92341.34;;;0.71;56.49
39455;BME280;25155;41.890;23.446;2024-02-21T02:50:35;92349.69;;;0.73;56.58
39455;BME280;25155;41.890;23.446;2024-02-21T02:53:02;92352.66;;;0.70;56.22
39455;BME280;25155;41.890;23.446;2024-02-21T02:55:29;92355.25;;;0.70;56.63
39455;BME280;25155;41.890;23.446;2024-02-21T02:57:58;92336.22;;;0.65;56.52
39455;BME280;25155;41.890;23.446;2024-02-21T03:00:25;92343.16;;;0.71;56.46
39455;BME280;25155;41.890;23.446;2024-02-21T03:02:53;92341.78;;;0.68;56.14
39455;BME280;25155;41.890;23.446;2024-02-21T03:05:21;92340.19;;;0.67;56.35
39455;BME280;25155;41.890;23.446;2024-02-21T03:07:49;92344.19;;;0.63;57.57
39455;BME280;25155;41.890;23.446;2024-02-21T03:10:16;92346.34;;;0.59;57.89
39455;BME280;25155;41.890;23.446;2024-02-21T03:12:43;92346.56;;;0.58;57.59
39455;BME280;25155;41.890;23.446;2024-02-21T03:15:12;92344.78;;;0.58;57.52
39455;BME280;25155;41.890;23.446;2024-02-21T03:17:40;92354.69;;;0.62;57.65
39455;BME280;25155;41.890;23.446;2024-02-21T03:20:08;92358.44;;;0.66;57.40
39455;BME280;25155;41.890;23.446;2024-02-21T03:22:35;92358.81;;;0.69;57.30
39455;BME280;25155;41.890;23.446;2024-02-21T03:25:03;92351.66;;;0.71;57.24
39455;BME280;25155;41.890;23.446;2024-02-21T03:27:31;92355.44;;;0.69;58.22
39455;BME280;25155;41.890;23.446;2024-02-21T03:29:58;92354.88;;;0.60;58.04
39455;BME280;25155;41.890;23.446;2024-02-21T03:32:27;92363.41;;;0.54;58.57
39455;BME280;25155;41.890;23.446;2024-02-21T03:34:55;92354.72;;;0.55;58.52
39455;BME280;25155;41.890;23.446;2024-02-21T03:37:23;92360.25;;;0.58;58.19
39455;BME280;25155;41.890;23.446;2024-02-21T03:39:50;92361.25;;;0.51;59.82
39455;BME280;25155;41.890;23.446;2024-02-21T03:42:17;92352.38;;;0.40;59.68
39455;BME280;25155;41.890;23.446;2024-02-21T03:44:45;92355.72;;;0.40;59.62
39455;BME280;25155;41.890;23.446;2024-02-21T03:47:13;92353.75;;;0.43;59.71
39455;BME280;25155;41.890;23.446;2024-02-21T03:49:41;92350.97;;;0.44;58.96
39455;BME280;25155;41.890;23.446;2024-02-21T03:52:09;92352.94;;;0.49;58.96
39455;BME280;25155;41.890;23.446;2024-02-21T03:54:36;92359.66;;;0.50;58.51
39455;BME280;25155;41.890;23.446;2024-02-21T03:57:04;92352.34;;;0.47;58.43
39455;BME280;25155;41.890;23.446;2024-02-21T03:59:32;92353.53;;;0.51;58.32
39455;BME280;25155;41.890;23.446;2024-02-21T04:01:59;92359.66;;;0.50;58.15
39455;BME280;25155;41.890;23.446;2024-02-21T04:04:26;92361.66;;;0.48;58.04
39455;BME280;25155;41.890;23.446;2024-02-21T04:06:55;92359.88;;;0.42;57.62
39455;BME280;25155;41.890;23.446;2024-02-21T04:09:22;92362.06;;;0.38;57.80
39455;BME280;25155;41.890;23.446;2024-02-21T04:11:49;92355.38;;;0.30;57.89
39455;BME280;25155;41.890;23.446;2024-02-21T04:14:17;92357.34;;;0.28;57.80
39455;BME280;25155;41.890;23.446;2024-02-21T04:16:44;92366.25;;;0.26;57.25
39455;BME280;25155;41.890;23.446;2024-02-21T04:19:11;92356.56;;;0.21;57.95
39455;BME280;25155;41.890;23.446;2024-02-21T04:21:38;92364.50;;;0.13;57.86
39455;BME280;25155;41.890;23.446;2024-02-21T04:24:07;92365.69;;;0.03;57.79
39455;BME280;25155;41.890;23.446;2024-02-21T04:26:35;92368.25;;;0.03;57.91
39455;BME280;25155;41.890;23.446;2024-02-21T04:29:02;92366.13;;;0.00;57.82
39455;BME280;25155;41.890;23.446;2024-02-21T04:31:29;92372.81;;;0.01;57.99
39455;BME280;25155;41.890;23.446;2024-02-21T04:33:59;92377.56;;;-0.02;58.32
39455;BME280;25155;41.890;23.446;2024-02-21T04:36:26;92380.56;;;-0.12;59.32
39455;BME280;25155;41.890;23.446;2024-02-21T04:38:54;92380.75;;;-0.34;59.73
39455;BME280;25155;41.890;23.446;2024-02-21T04:41:23;92383.50;;;-0.35;59.51
39455;BME280;25155;41.890;23.446;2024-02-21T04:43:50;92388.84;;;-0.30;59.11
39455;BME280;25155;41.890;23.446;2024-02-21T04:46:18;92389.25;;;-0.26;58.96
39455;BME280;25155;41.890;23.446;2024-02-21T04:48:45;92389.84;;;-0.24;59.20
39455;BME280;25155;41.890;23.446;2024-02-21T04:51:12;92391.03;;;-0.27;58.90
39455;BME280;25155;41.890;23.446;2024-02-21T04:53:40;92390.84;;;-0.25;58.77
39455;BME280;25155;41.890;23.446;2024-02-21T04:56:07;92388.66;;;-0.28;59.24
39455;BME280;25155;41.890;23.446;2024-02-21T04:58:39;92390.63;;;-0.30;59.09
39455;BME280;25155;41.890;23.446;2024-02-21T05:01:07;92390.25;;;-0.27;58.49
39455;BME280;25155;41.890;23.446;2024-02-21T05:03:34;92377.78;;;-0.30;58.46
39455;BME280;25155;41.890;23.446;2024-02-21T05:06:02;92381.53;;;-0.26;58.47
39455;BME280;25155;41.890;23.446;2024-02-21T05:08:29;92398.56;;;-0.32;58.33
39455;BME280;25155;41.890;23.446;2024-02-21T05:10:56;92396.16;;;-0.34;58.24
39455;BME280;25155;41.890;23.446;2024-02-21T05:13:23;92389.44;;;-0.35;58.56
39455;BME280;25155;41.890;23.446;2024-02-21T05:15:53;92382.34;;;-0.46;58.27
39455;BME280;25155;41.890;23.446;2024-02-21T05:18:20;92387.47;;;-0.46;58.65
39455;BME280;25155;41.890;23.446;2024-02-21T05:20:47;92385.28;;;-0.49;58.60
39455;BME280;25155;41.890;23.446;2024-02-21T05:23:15;92391.81;;;-0.46;58.33
39455;BME280;25155;41.890;23.446;2024-02-21T05:25:42;92389.84;;;-0.51;59.15
39455;BME280;25155;41.890;23.446;2024-02-21T05:28:09;92394.38;;;-0.53;59.14
39455;BME280;25155;41.890;23.446;2024-02-21T05:30:36;92391.78;;;-0.53;58.75
39455;BME280;25155;41.890;23.446;2024-02-21T06:24:34;92443.28;;;0.27;59.56
39455;BME280;25155;41.890;23.446;2024-02-21T06:27:02;92446.44;;;0.43;59.43
39455;BME280;25155;41.890;23.446;2024-02-21T06:29:29;92440.28;;;0.57;59.58
39455;BME280;25155;41.890;23.446;2024-02-21T06:31:56;92451.13;;;0.72;59.39
39455;BME280;25155;41.890;23.446;2024-02-21T06:34:23;92443.97;;;0.81;59.10
39455;BME280;25155;41.890;23.446;2024-02-21T06:36:51;92447.72;;;0.92;59.62
39455;BME280;25155;41.890;23.446;2024-02-21T06:39:18;92451.03;;;1.06;59.73
39455;BME280;25155;41.890;23.446;2024-02-21T06:41:47;92455.34;;;1.19;59.50
39455;BME280;25155;41.890;23.446;2024-02-21T06:44:16;92449.56;;;1.30;59.63
39455;BME280;25155;41.890;23.446;2024-02-21T06:46:43;92440.16;;;1.42;59.57
39455;BME280;25155;41.890;23.446;2024-02-21T06:49:10;92449.81;;;1.54;59.44
39455;BME280;25155;41.890;23.446;2024-02-21T06:51:41;92446.22;;;1.61;59.03
39455;BME280;25155;41.890;23.446;2024-02-21T06:54:09;92450.31;;;1.76;59.03
39455;BME280;25155;41.890;23.446;2024-02-21T06:56:37;92449.84;;;1.85;58.87
39455;BME280;25155;41.890;23.446;2024-02-21T06:59:05;92451.38;;;1.93;58.43
39455;BME280;25155;41.890;23.446;2024-02-21T07:01:33;92455.47;;;2.07;58.74
39455;BME280;25155;41.890;23.446;2024-02-21T07:04:00;92458.56;;;2.16;57.96
39455;BME280;25155;41.890;23.446;2024-02-21T07:06:27;92456.91;;;2.22;57.96
39455;BME280;25155;41.890;23.446;2024-02-21T07:08:54;92454.28;;;2.29;57.75
39455;BME280;25155;41.890;23.446;2024-02-21T07:11:21;92445.84;;;2.40;58.16
39455;BME280;25155;41.890;23.446;2024-02-21T07:13:49;92449.34;;;2.52;57.23
39455;BME280;25155;41.890;23.446;2024-02-21T07:16:18;92455.66;;;2.56;57.12
39455;BME280;25155;41.890;23.446;2024-02-21T07:18:45;92455.59;;;2.63;56.46
39455;BME280;25155;41.890;23.446;2024-02-21T07:21:12;92449.56;;;2.69;57.01
39455;BME280;25155;41.890;23.446;2024-02-21T07:23:40;92452.22;;;2.81;57.20
39455;BME280;25155;41.890;23.446;2024-02-21T07:26:08;92447.28;;;2.98;56.74
39455;BME280;25155;41.890;23.446;2024-02-21T07:28:35;92445.66;;;3.04;56.24
39455;BME280;25155;41.890;23.446;2024-02-21T07:31:03;92446.78;;;3.08;56.21
39455;BME280;25155;41.890;23.446;2024-02-21T07:33:32;92445.50;;;3.17;56.02
39455;BME280;25155;41.890;23.446;2024-02-21T07:36:01;92445.34;;;3.30;56.15
39455;BME280;25155;41.890;23.446;2024-02-21T07:38:28;92440.44;;;3.41;55.51
39455;BME280;25155;41.890;23.446;2024-02-21T07:40:55;92434.53;;;3.52;55.81
39455;BME280;25155;41.890;23.446;2024-02-21T07:43:22;92434.34;;;3.65;55.65
39455;BME280;25155;41.890;23.446;2024-02-21T07:45:52;92431.34;;;3.80;55.73
39455;BME280;25155;41.890;23.446;2024-02-21T07:48:21;92430.38;;;3.93;55.22
39455;BME280;25155;41.890;23.446;2024-02-21T07:50:51;92429.44;;;4.06;54.87
39455;BME280;25155;41.890;23.446;2024-02-21T07:53:20;92431.59;;;4.21;54.96
39455;BME280;25155;41.890;23.446;2024-02-21T07:55:47;92415.63;;;4.36;54.92
39455;BME280;25155;41.890;23.446;2024-02-21T07:58:14;92419.31;;;4.52;54.88
39455;BME280;25155;41.890;23.446;2024-02-21T08:00:41;92408.16;;;4.63;53.57
39455;BME280;25155;41.890;23.446;2024-02-21T08:03:08;92405.78;;;4.73;53.62
39455;BME280;25155;41.890;23.446;2024-02-21T08:05:35;92400.34;;;4.87;53.44
39455;BME280;25155;41.890;23.446;2024-02-21T08:08:04;92411.28;;;5.00;53.30
39455;BME280;25155;41.890;23.446;2024-02-21T08:10:33;92404.03;;;5.14;53.29
39455;BME280;25155;41.890;23.446;2024-02-21T08:13:00;92402.88;;;5.22;51.96
39455;BME280;25155;41.890;23.446;2024-02-21T08:15:27;92411.09;;;5.31;52.47
39455;BME280;25155;41.890;23.446;2024-02-21T08:17:55;92405.31;;;5.41;51.71
39455;BME280;25155;41.890;23.446;2024-02-21T08:20:25;92383.16;;;5.50;52.46
39455;BME280;25155;41.890;23.446;2024-02-21T08:22:52;92395.72;;;5.70;52.76
39455;BME280;25155;41.890;23.446;2024-02-21T08:25:21;92397.78;;;5.85;51.37
39455;BME280;25155;41.890;23.446;2024-02-21T08:27:48;92390.47;;;5.99;51.04
39455;BME280;25155;41.890;23.446;2024-02-21T08:30:17;92396.88;;;6.08;50.93
39455;BME280;25155;41.890;23.446;2024-02-21T08:32:45;92389.69;;;6.15;49.59
39455;BME280;25155;41.890;23.446;2024-02-21T08:35:12;92392.69;;;6.24;50.22
39455;BME280;25155;41.890;23.446;2024-02-21T08:37:39;92390.00;;;6.36;50.31
39455;BME280;25155;41.890;23.446;2024-02-21T08:40:09;92387.13;;;6.49;50.29
39455;BME280;25155;41.890;23.446;2024-02-21T08:42:38;92388.88;;;6.65;50.64
39455;BME280;25155;41.890;23.446;2024-02-21T08:45:07;92393.28;;;6.82;50.07
39455;BME280;25155;41.890;23.446;2024-02-21T08:47:35;92389.31;;;6.96;50.36
39455;BME280;25155;41.890;23.446;2024-02-21T08:50:03;92381.44;;;7.13;50.10
39455;BME280;25155;41.890;23.446;2024-02-21T08:52:32;92380.06;;;7.28;50.26
39455;BME280;25155;41.890;23.446;2024-02-21T08:54:59;92382.50;;;7.39;48.38
39455;BME280;25155;41.890;23.446;2024-02-21T08:57:27;92378.47;;;7.49;48.12
39455;BME280;25155;41.890;23.446;2024-02-21T08:59:56;92381.16;;;7.59;47.91
39455;BME280;25155;41.890;23.446;2024-02-21T09:02:23;92374.31;;;7.75;47.61
39455;BME280;25155;41.890;23.446;2024-02-21T09:04:50;92376.94;;;7.80;45.96
39455;BME280;25155;41.890;23.446;2024-02-21T09:07:17;92373.59;;;7.85;46.48
39455;BME280;25155;41.890;23.446;2024-02-21T09:09:45;92376.06;;;7.96;46.61
39455;BME280;25155;41.890;23.446;2024-02-21T09:12:12;92375.59;;;8.05;46.82
39455;BME280;25155;41.890;23.446;2024-02-21T09:14:41;92368.16;;;8.19;47.56
39455;BME280;25155;41.890;23.446;2024-02-21T09:17:10;92362.97;;;8.24;46.28
39455;BME280;25155;41.890;23.446;2024-02-21T09:19:38;92362.81;;;8.36;46.53
39455;BME280;25155;41.890;23.446;2024-02-21T09:22:05;92357.16;;;8.49;46.20
39455;BME280;25155;41.890;23.446;2024-02-21T09:24:32;92344.72;;;8.56;44.76
39455;BME280;25155;41.890;23.446;2024-02-21T09:26:59;92345.97;;;8.48;44.05
39455;BME280;25155;41.890;23.446;2024-02-21T09:29:26;92346.34;;;8.30;44.45
39455;BME280;25155;41.890;23.446;2024-02-21T09:31:53;92347.22;;;8.08;44.08
39455;BME280;25155;41.890;23.446;2024-02-21T09:34:22;92369.09;;;8.07;45.11
39455;BME280;25155;41.890;23.446;2024-02-21T09:36:49;92357.75;;;8.24;44.28
39455;BME280;25155;41.890;23.446;2024-02-21T09:39:16;92351.09;;;8.33;43.96
39455;BME280;25155;41.890;23.446;2024-02-21T09:41:49;92356.09;;;8.40;44.28
39455;BME280;25155;41.890;23.446;2024-02-21T09:44:19;92358.50;;;8.51;43.88
39455;BME280;25155;41.890;23.446;2024-02-21T09:46:55;92364.53;;;8.57;44.51
39455;BME280;25155;41.890;23.446;2024-02-21T09:49:30;92369.03;;;8.67;42.08
39455;BME280;25155;41.890;23.446;2024-02-21T09:52:00;92373.72;;;8.65;43.31
39455;BME280;25155;41.890;23.446;2024-02-21T09:54:29;92359.16;;;8.74;43.48
39455;BME280;25155;41.890;23.446;2024-02-21T09:56:59;92355.28;;;8.87;43.30
39455;BME280;25155;41.890;23.446;2024-02-21T09:59:28;92355.91;;;8.99;43.35
39455;BME280;25155;41.890;23.446;2024-02-21T10:01:55;92353.56;;;9.08;43.23
39455;BME280;25155;41.890;23.446;2024-02-21T10:04:25;92351.81;;;9.24;43.28
39455;BME280;25155;41.890;23.446;2024-02-21T10:06:54;92353.63;;;9.29;40.69
39455;BME280;25155;41.890;23.446;2024-02-21T10:09:22;92347.34;;;9.19;41.63
39455;BME280;25155;41.890;23.446;2024-02-21T10:11:50;92336.31;;;9.07;41.95
39455;BME280;25155;41.890;23.446;2024-02-21T10:14:17;92353.09;;;9.21;42.27
39455;BME280;25155;41.890;23.446;2024-02-21T10:16:45;92341.91;;;9.36;42.00
39455;BME280;25155;41.890;23.446;2024-02-21T10:19:21;92337.97;;;9.23;40.14
39455;BME280;25155;41.890;23.446;2024-02-21T10:22:03;92336.38;;;9.17;42.81
39455;BME280;25155;41.890;23.446;2024-02-21T10:24:30;92323.38;;;9.27;41.67
39455;BME280;25155;41.890;23.446;2024-02-21T10:27:05;92329.63;;;9.32;41.40
39455;BME280;25155;41.890;23.446;2024-02-21T10:29:34;92327.00;;;9.32;41.97
39455;BME280;25155;41.890;23.446;2024-02-21T10:32:06;92328.09;;;9.46;41.41
39455;BME280;25155;41.890;23.446;2024-02-21T10:34:35;92314.78;;;9.48;40.38
39455;BME280;25155;41.890;23.446;2024-02-21T10:37:05;92313.97;;;9.37;40.89
39455;BME280;25155;41.890;23.446;2024-02-21T10:39:33;92314.53;;;9.49;41.92
39455;BME280;25155;41.890;23.446;2024-02-21T10:42:02;92308.78;;;9.42;40.47
39455;BME280;25155;41.890;23.446;2024-02-21T10:44:31;92305.09;;;9.33;42.46
39455;BME280;25155;41.890;23.446;2024-02-21T10:47:00;92295.72;;;9.47;42.58
39455;BME280;25155;41.890;23.446;2024-02-21T10:49:32;92298.88;;;9.70;42.28
39455;BME280;25155;41.890;23.446;2024-02-21T10:52:09;92294.19;;;9.72;40.84
39455;BME280;25155;41.890;23.446;2024-02-21T10:54:44;92286.56;;;9.50;40.83
39455;BME280;25155;41.890;23.446;2024-02-21T10:57:13;92287.38;;;9.50;42.86
39455;BME280;25155;41.890;23.446;2024-02-21T10:59:44;92297.28;;;9.53;41.30
39455;BME280;25155;41.890;23.446;2024-02-21T11:02:11;92285.28;;;9.62;42.00
39455;BME280;25155;41.890;23.446;2024-02-21T11:04:39;92281.09;;;9.67;41.80
39455;BME280;25155;41.890;23.446;2024-02-21T11:07:09;92285.03;;;9.64;41.61
39455;BME280;25155;41.890;23.446;2024-02-21T11:09:36;92273.28;;;9.72;41.18
39455;BME280;25155;41.890;23.446;2024-02-21T11:12:05;92275.38;;;9.90;41.20
39455;BME280;25155;41.890;23.446;2024-02-21T11:14:34;92281.69;;;10.15;41.79
39455;BME280;25155;41.890;23.446;2024-02-21T11:17:14;92280.88;;;10.14;40.37
39455;BME280;25155;41.890;23.446;2024-02-21T11:19:42;92280.91;;;9.94;41.28
39455;BME280;25155;41.890;23.446;2024-02-21T11:22:16;92278.00;;;9.85;40.65
39455;BME280;25155;41.890;23.446;2024-02-21T11:24:43;92279.81;;;9.85;41.07
39455;BME280;25155;41.890;23.446;2024-02-21T11:27:12;92270.41;;;9.73;40.82
39455;BME280;25155;41.890;23.446;2024-02-21T11:29:40;92265.22;;;9.94;41.28
39455;BME280;25155;41.890;23.446;2024-02-21T11:32:09;92267.03;;;9.98;40.90
39455;BME280;25155;41.890;23.446;2024-02-21T11:34:37;92271.47;;;10.08;40.09
39455;BME280;25155;41.890;23.446;2024-02-21T11:37:15;92270.16;;;10.21;40.83
39455;BME280;25155;41.890;23.446;2024-02-21T11:39:43;92265.16;;;10.19;40.11
39455;BME280;25155;41.890;23.446;2024-02-21T11:42:11;92253.41;;;10.27;40.09
39455;BME280;25155;41.890;23.446;2024-02-21T11:44:39;92251.59;;;10.17;39.94
39455;BME280;25155;41.890;23.446;2024-02-21T11:47:08;92256.06;;;10.12;40.50
39455;BME280;25155;41.890;23.446;2024-02-21T11:49:37;92251.59;;;10.12;40.17
39455;BME280;25155;41.890;23.446;2024-02-21T11:52:05;92256.03;;;10.22;40.48
39455;BME280;25155;41.890;23.446;2024-02-21T11:54:34;92246.38;;;10.07;39.80
39455;BME280;25155;41.890;23.446;2024-02-21T11:57:02;92248.22;;;9.96;40.66
39455;BME280;25155;41.890;23.446;2024-02-21T11:59:30;92244.81;;;10.01;40.62
39455;BME280;25155;41.890;23.446;2024-02-21T12:01:59;92243.47;;;10.19;39.80
39455;BME280;25155;41.890;23.446;2024-02-21T12:04:27;92246.88;;;10.30;39.44
39455;BME280;25155;41.890;23.446;2024-02-21T12:06:54;92239.00;;;10.35;39.25
39455;BME280;25155;41.890;23.446;2024-02-21T12:09:23;92246.34;;;10.28;38.80
39455;BME280;25155;41.890;23.446;2024-02-21T12:11:59;92239.84;;;10.15;39.12
39455;BME280;25155;41.890;23.446;2024-02-21T12:14:27;92231.94;;;10.30;38.85
39455;BME280;25155;41.890;23.446;2024-02-21T12:16:56;92229.84;;;10.37;38.57
39455;BME280;25155;41.890;23.446;2024-02-21T12:19:23;92238.19;;;10.45;39.22
39455;BME280;25155;41.890;23.446;2024-02-21T12:21:51;92224.53;;;10.63;38.76
39455;BME280;25155;41.890;23.446;2024-02-21T12:24:22;92227.13;;;10.68;38.54
39455;BME280;25155;41.890;23.446;2024-02-21T12:26:49;92230.78;;;10.78;37.97
39455;BME280;25155;41.890;23.446;2024-02-21T12:29:19;92222.91;;;10.78;37.86
39455;BME280;25155;41.890;23.446;2024-02-21T12:31:47;92231.00;;;10.81;37.74
39455;BME280;25155;41.890;23.446;2024-02-21T12:34:15;92225.56;;;10.67;37.80
39455;BME280;25155;41.890;23.446;2024-02-21T12:36:43;92218.53;;;10.63;38.40
39455;BME280;25155;41.890;23.446;2024-02-21T12:39:11;92214.78;;;10.74;38.41
39455;BME280;25155;41.890;23.446;2024-02-21T12:41:38;92201.72;;;10.69;38.13
39455;BME280;25155;41.890;23.446;2024-02-21T12:44:06;92198.16;;;10.54;38.10
39455;BME280;25155;41.890;23.446;2024-02-21T12:46:35;92201.25;;;10.62;37.55
39455;BME280;25155;41.890;23.446;2024-02-21T12:49:03;92199.66;;;10.61;37.57
39455;BME280;25155;41.890;23.446;2024-02-21T12:51:31;92199.25;;;10.38;37.79
39455;BME280;25155;41.890;23.446;2024-02-21T12:56:33;92199.06;;;9.83;37.35
39455;BME280;25155;41.890;23.446;2024-02-21T12:59:00;92193.84;;;9.68;37.62
39455;BME280;25155;41.890;23.446;2024-02-21T13:01:27;92195.41;;;9.58;38.25
39455;BME280;25155;41.890;23.446;2024-02-21T13:03:56;92193.06;;;9.36;38.17
39455;BME280;25155;41.890;23.446;2024-02-21T13:06:26;92192.28;;;9.36;39.19
39455;BME280;25155;41.890;23.446;2024-02-21T13:08:53;92186.81;;;9.53;38.97
39455;BME280;25155;41.890;23.446;2024-02-21T13:11:20;92188.88;;;9.66;38.37
39455;BME280;25155;41.890;23.446;2024-02-21T13:13:48;92187.06;;;9.77;38.13
39455;BME280;25155;41.890;23.446;2024-02-21T13:16:15;92187.56;;;9.84;37.97
39455;BME280;25155;41.890;23.446;2024-02-21T13:18:42;92185.47;;;9.96;37.47
39455;BME280;25155;41.890;23.446;2024-02-21T13:21:12;92185.97;;;10.14;37.52
39455;BME280;25155;41.890;23.446;2024-02-21T13:23:40;92171.06;;;10.25;36.71
39455;BME280;25155;41.890;23.446;2024-02-21T13:26:10;92179.91;;;10.34;36.46
39455;BME280;25155;41.890;23.446;2024-02-21T13:28:38;92176.53;;;10.28;36.75
39455;BME280;25155;41.890;23.446;2024-02-21T13:31:05;92184.78;;;10.51;36.54
39455;BME280;25155;41.890;23.446;2024-02-21T13:33:32;92176.44;;;10.49;35.61
39455;BME280;25155;41.890;23.446;2024-02-21T13:36:00;92176.44;;;10.49;37.07
39455;BME280;25155;41.890;23.446;2024-02-21T13:38:29;92184.22;;;10.64;36.29
39455;BME280;25155;41.890;23.446;2024-02-21T13:40:56;92182.88;;;10.72;35.32
39455;BME280;25155;41.890;23.446;2024-02-21T13:43:26;92175.31;;;10.65;36.53
39455;BME280;25155;41.890;23.446;2024-02-21T13:45:56;92167.94;;;10.78;35.87
39455;BME280;25155;41.890;23.446;2024-02-21T13:48:24;92163.69;;;10.87;35.17
39455;BME280;25155;41.890;23.446;2024-02-21T13:50:52;92161.47;;;10.65;35.99
39455;BME280;25155;41.890;23.446;2024-02-21T13:53:19;92161.72;;;10.63;35.92
39455;BME280;25155;41.890;23.446;2024-02-21T13:55:48;92165.91;;;10.69;35.94